createdAt,value
2023-04-21T00:02:25.881Z,92.80
2023-04-21T00:04:53.293Z,92.70
2023-04-21T00:07:20.429Z,92.70
2023-04-21T00:09:47.179Z,92.70
2023-04-21T00:12:13.965Z,92.50
2023-04-21T00:14:40.687Z,92.20
2023-04-21T00:17:07.458Z,92.60
2023-04-21T00:19:35.242Z,92.50
2023-04-21T00:22:02.426Z,92.50
2023-04-21T00:24:29.130Z,92.20
2023-04-21T00:26:55.830Z,92.00
2023-04-21T00:29:22.517Z,92.00
2023-04-21T00:31:49.290Z,92.20
2023-04-21T00:34:16.219Z,92.20
2023-04-21T00:36:42.946Z,92.20
2023-04-21T00:39:09.655Z,92.10
2023-04-21T00:41:37.195Z,92.00
2023-04-21T00:44:06.582Z,91.90
2023-04-21T00:46:34.456Z,92.00
2023-04-21T00:49:04.873Z,91.90
2023-04-21T00:51:33.823Z,91.40
2023-04-21T00:54:04.101Z,91.60
2023-04-21T00:56:33.025Z,91.80
2023-04-21T00:59:01.042Z,91.60
2023-04-21T01:01:32.669Z,91.60
2023-04-21T01:04:00.913Z,91.60
2023-04-21T01:06:33.082Z,91.40
2023-04-21T01:09:00.387Z,91.60
2023-04-21T01:11:27.152Z,91.50
2023-04-21T01:13:54.611Z,91.60
2023-04-21T01:16:23.989Z,91.00
2023-04-21T01:18:53.431Z,90.90
2023-04-21T01:21:21.502Z,90.90
2023-04-21T01:23:48.255Z,90.90
2023-04-21T01:26:19.160Z,90.70
2023-04-21T01:28:47.660Z,90.50
2023-04-21T01:31:16.034Z,90.50
2023-04-21T01:33:42.934Z,89.80
2023-04-21T01:36:09.936Z,89.80
2023-04-21T01:38:42.986Z,90.00
2023-04-21T01:41:10.919Z,90.10
2023-04-21T01:43:38.651Z,90.00
2023-04-21T01:46:06.393Z,89.80
2023-04-21T01:48:33.290Z,89.70
2023-04-21T01:51:00.057Z,89.80
2023-04-21T01:53:27.056Z,89.50
2023-04-21T01:55:53.920Z,89.80
2023-04-21T01:58:21.623Z,89.20
2023-04-21T02:00:48.413Z,89.80
2023-04-21T02:03:15.295Z,90.00
2023-04-21T02:05:42.110Z,90.10
2023-04-21T02:08:08.846Z,90.10
2023-04-21T02:10:35.739Z,90.10
2023-04-21T02:13:02.498Z,89.70
2023-04-21T02:15:29.359Z,89.60
2023-04-21T02:17:56.148Z,89.10
2023-04-21T02:20:22.994Z,89.30
2023-04-21T02:22:49.749Z,88.50
2023-04-21T02:25:16.528Z,88.10
2023-04-21T02:27:43.282Z,87.50
2023-04-21T02:30:10.176Z,86.80
2023-04-21T02:32:36.953Z,87.50
2023-04-21T02:35:04.061Z,88.70
2023-04-21T02:37:31.007Z,90.20
2023-04-21T02:39:57.683Z,90.80
2023-04-21T02:42:24.463Z,91.40
2023-04-21T02:44:51.261Z,91.50
2023-04-21T02:47:18.050Z,91.60
2023-04-21T02:49:44.845Z,91.90
2023-04-21T02:52:11.612Z,91.60
2023-04-21T02:54:38.289Z,91.30
2023-04-21T02:57:05.065Z,91.60
2023-04-21T02:59:31.804Z,92.00
2023-04-21T03:01:58.666Z,91.70
2023-04-21T03:04:26.184Z,92.20
2023-04-21T03:06:53.788Z,92.50
2023-04-21T03:09:20.983Z,92.70
2023-04-21T03:11:47.803Z,92.90
2023-04-21T03:14:14.526Z,92.60
2023-04-21T03:16:41.279Z,92.30
2023-04-21T03:19:08.117Z,92.00
2023-04-21T03:21:38.078Z,92.10
2023-04-21T03:24:06.602Z,92.40
2023-04-21T03:26:33.431Z,92.70
2023-04-21T03:29:00.163Z,93.00
2023-04-21T03:31:26.888Z,93.10
2023-04-21T03:33:53.644Z,92.80
2023-04-21T03:36:20.544Z,92.70
2023-04-21T03:38:47.260Z,92.80
2023-04-21T03:41:14.061Z,92.90
2023-04-21T03:43:40.868Z,92.80
2023-04-21T03:46:07.669Z,92.60
2023-04-21T03:48:34.441Z,92.90
2023-04-21T03:51:01.139Z,92.90
2023-04-21T03:53:33.003Z,92.80
2023-04-21T03:55:59.811Z,92.90
2023-04-21T03:58:26.570Z,93.20
2023-04-21T04:00:53.402Z,93.20
2023-04-21T04:03:23.201Z,93.20
2023-04-21T04:05:50.411Z,93.00
2023-04-21T04:08:17.187Z,92.90
2023-04-21T04:10:43.989Z,92.70
2023-04-21T04:13:10.735Z,93.00
2023-04-21T04:15:37.638Z,93.00
2023-04-21T04:18:04.604Z,92.90
2023-04-21T04:20:31.571Z,93.00
2023-04-21T04:22:58.369Z,93.10
2023-04-21T04:25:25.489Z,93.30
2023-04-21T04:27:52.279Z,93.30
2023-04-21T04:30:19.070Z,93.40
2023-04-21T04:32:45.876Z,93.20
2023-04-21T04:35:13.605Z,93.30
2023-04-21T04:37:41.231Z,93.40
2023-04-21T04:40:15.723Z,93.50
2023-04-21T04:42:42.908Z,93.60
2023-04-21T04:45:11.253Z,93.50
2023-04-21T04:47:38.339Z,93.70
2023-04-21T04:50:05.999Z,93.50
2023-04-21T04:52:32.853Z,94.10
2023-04-21T04:54:59.581Z,94.30
2023-04-21T04:57:26.345Z,94.90
2023-04-21T04:59:56.430Z,94.70
2023-04-21T05:02:24.334Z,94.90
2023-04-21T05:04:51.615Z,95.20
2023-04-21T05:07:18.751Z,95.40
2023-04-21T05:09:45.961Z,95.50
2023-04-21T05:12:12.759Z,95.60
2023-04-21T05:14:39.594Z,95.30
2023-04-21T05:17:06.504Z,96.50
2023-04-21T05:19:36.471Z,96.80
2023-04-21T05:22:03.457Z,96.90
2023-04-21T05:24:30.325Z,96.70
2023-04-21T05:26:57.124Z,96.50
2023-04-21T05:29:23.947Z,96.00
2023-04-21T05:31:50.867Z,95.50
2023-04-21T05:34:17.812Z,95.30
2023-04-21T05:36:44.750Z,95.10
2023-04-21T05:39:11.822Z,95.30
2023-04-21T05:41:38.958Z,95.00
2023-04-21T05:44:05.836Z,94.50
2023-04-21T05:46:34.856Z,94.70
2023-04-21T05:49:04.936Z,94.60
2023-04-21T05:51:32.155Z,94.60
2023-04-21T05:53:59.087Z,94.80
2023-04-21T05:56:26.056Z,94.30
2023-04-21T05:58:52.726Z,94.00
2023-04-21T06:01:22.273Z,93.80
2023-04-21T06:03:50.444Z,93.80
2023-04-21T06:06:18.038Z,93.10
2023-04-21T06:08:44.830Z,92.80
2023-04-21T06:11:11.649Z,92.80
2023-04-21T06:13:39.516Z,92.50
2023-04-21T06:16:08.096Z,92.30
2023-04-21T06:18:35.084Z,91.70
2023-04-21T06:21:01.938Z,91.50
2023-04-21T06:23:28.645Z,91.10
2023-04-21T06:26:13.847Z,90.40
2023-04-21T06:28:40.889Z,89.80
2023-04-21T06:31:09.810Z,89.20
2023-04-21T06:33:37.107Z,88.00
2023-04-21T06:36:04.194Z,88.80
2023-04-21T06:38:31.072Z,88.40
2023-04-21T06:40:58.025Z,87.10
2023-04-21T06:43:24.908Z,85.70
2023-04-21T06:45:51.755Z,85.10
2023-04-21T06:48:18.704Z,84.60
2023-04-21T06:50:46.508Z,83.90
2023-04-21T06:53:13.488Z,83.10
2023-04-21T06:55:40.501Z,82.90
2023-04-21T06:58:07.422Z,81.30
2023-04-21T07:00:34.366Z,80.50
2023-04-21T07:03:01.378Z,79.70
2023-04-21T07:05:28.638Z,80.00
2023-04-21T07:07:59.670Z,79.70
2023-04-21T07:10:27.342Z,78.30
2023-04-21T07:12:54.323Z,75.60
2023-04-21T07:15:21.387Z,73.70
2023-04-21T07:17:48.272Z,71.30
2023-04-21T07:20:15.073Z,70.70
2023-04-21T07:22:41.773Z,69.40
2023-04-21T07:25:10.023Z,68.60
2023-04-21T07:27:37.274Z,67.20
2023-04-21T07:30:07.553Z,65.20
2023-04-21T07:32:35.120Z,70.00
2023-04-21T07:35:02.864Z,73.00
2023-04-21T07:37:29.693Z,74.30
2023-04-21T07:39:56.539Z,75.40
2023-04-21T07:42:24.589Z,74.20
2023-04-21T07:44:51.412Z,76.80
2023-04-21T07:47:18.387Z,77.10
2023-04-21T07:49:45.668Z,73.20
2023-04-21T07:52:12.526Z,71.70
2023-04-21T07:54:39.313Z,70.80
2023-04-21T07:57:07.261Z,69.70
2023-04-21T07:59:34.163Z,69.70
2023-04-21T08:02:02.001Z,67.70
2023-04-21T08:04:29.305Z,66.20
2023-04-21T08:06:56.261Z,67.00
2023-04-21T08:09:23.368Z,64.80
2023-04-21T08:11:51.866Z,67.10
2023-04-21T08:14:18.853Z,63.40
2023-04-21T08:16:46.210Z,61.10
2023-04-21T08:19:13.046Z,62.20
2023-04-21T08:21:40.063Z,59.10
2023-04-21T08:24:07.085Z,57.10
2023-04-21T08:26:34.002Z,58.10
2023-04-21T08:29:03.513Z,56.40
2023-04-21T08:31:31.426Z,56.80
2023-04-21T08:34:02.287Z,55.40
2023-04-21T08:36:30.557Z,58.10
2023-04-21T08:38:57.977Z,56.30
2023-04-21T08:41:26.294Z,57.30
2023-04-21T08:43:53.258Z,56.00
2023-04-21T08:46:20.615Z,53.90
2023-04-21T08:48:47.988Z,53.50
2023-04-21T08:51:21.734Z,53.50
2023-04-21T08:53:48.528Z,53.30
2023-04-21T08:56:15.440Z,53.10
2023-04-21T08:58:42.290Z,50.20
2023-04-21T09:01:09.188Z,51.40
2023-04-21T09:03:36.198Z,51.00
2023-04-21T09:06:08.944Z,51.20
2023-04-21T09:08:44.174Z,50.20
2023-04-21T09:11:14.680Z,48.80
2023-04-21T09:13:43.746Z,48.60
2023-04-21T09:16:21.719Z,46.90
2023-04-21T09:18:50.067Z,46.80
2023-04-21T09:21:18.693Z,46.70
2023-04-21T09:23:51.580Z,46.60
2023-04-21T09:26:20.006Z,48.50
2023-04-21T09:28:48.376Z,49.10
2023-04-21T09:31:20.028Z,47.90
2023-04-21T09:33:57.670Z,47.70
2023-04-21T09:36:27.839Z,47.50
2023-04-21T09:39:08.910Z,46.60
2023-04-21T09:41:41.399Z,48.20
2023-04-21T09:44:08.193Z,47.00
2023-04-21T09:46:36.964Z,49.00
2023-04-21T09:49:04.833Z,48.70
2023-04-21T09:52:05.369Z,48.50
2023-04-21T09:54:29.787Z,48.10
2023-04-21T09:57:01.808Z,46.40
2023-04-21T09:59:41.252Z,46.70
2023-04-21T10:02:09.881Z,47.00
2023-04-21T10:04:38.392Z,47.70
2023-04-21T10:07:06.391Z,49.50
2023-04-21T10:09:45.393Z,47.60
2023-04-21T10:12:13.856Z,47.80
2023-04-21T10:14:40.620Z,47.10
2023-04-21T10:17:10.127Z,47.20
2023-04-21T10:19:40.764Z,46.20
2023-04-21T10:22:10.863Z,46.80
2023-04-21T10:24:39.574Z,45.00
2023-04-21T10:27:09.477Z,43.90
2023-04-21T10:32:07.691Z,45.50
2023-04-21T10:34:38.172Z,45.40
2023-04-21T10:37:04.946Z,45.00
2023-04-21T10:39:36.356Z,46.30
2023-04-21T10:42:20.667Z,47.90
2023-04-21T10:44:56.406Z,47.20
2023-04-21T10:47:29.559Z,47.40
2023-04-21T10:50:00.575Z,47.50
2023-04-21T10:52:33.879Z,47.50
2023-04-21T10:55:03.969Z,48.90
2023-04-21T10:57:35.603Z,48.60
2023-04-21T11:00:06.952Z,50.00
2023-04-21T11:02:38.332Z,50.60
2023-04-21T11:05:08.920Z,50.60
2023-04-21T11:07:35.906Z,51.90
2023-04-21T11:10:05.661Z,53.00
2023-04-21T11:12:34.967Z,52.90
2023-04-21T11:15:11.332Z,52.20
2023-04-21T11:17:39.892Z,50.70
2023-04-21T11:20:09.116Z,50.20
2023-04-21T11:22:37.846Z,51.90
2023-04-21T11:25:05.157Z,51.30
2023-04-21T11:27:31.889Z,52.10
2023-04-21T11:29:58.766Z,52.90
2023-04-21T11:32:25.828Z,53.30
2023-04-21T11:34:52.691Z,52.40
2023-04-21T11:37:26.733Z,52.70
2023-04-21T11:40:00.723Z,52.80
2023-04-21T11:42:28.549Z,53.90
2023-04-21T11:44:56.710Z,54.60
2023-04-21T11:47:27.605Z,54.80
2023-04-21T11:49:56.544Z,53.50
2023-04-21T11:52:29.137Z,53.70
2023-04-21T11:55:02.085Z,53.60
2023-04-21T11:57:31.181Z,53.70
2023-04-21T12:00:02.348Z,53.50
2023-04-21T12:02:30.968Z,53.70
2023-04-21T12:05:02.964Z,54.20
2023-04-21T12:07:36.113Z,52.50
2023-04-21T12:10:13.420Z,53.90
2023-04-21T12:12:42.098Z,54.00
2023-04-21T12:15:11.093Z,54.40
2023-04-21T12:17:39.074Z,53.40
2023-04-21T12:20:07.411Z,54.20
2023-04-21T12:22:34.555Z,53.30
2023-04-21T12:25:01.438Z,50.90
2023-04-21T12:27:28.574Z,50.70
2023-04-21T12:29:55.292Z,49.60
2023-04-21T12:32:22.362Z,48.20
2023-04-21T12:34:49.084Z,48.30
2023-04-21T12:37:16.149Z,47.90
2023-04-21T12:39:42.885Z,47.30
2023-04-21T12:42:09.694Z,46.80
2023-04-21T12:44:36.591Z,46.20
2023-04-21T12:47:03.332Z,46.40
2023-04-21T12:49:30.361Z,47.20
2023-04-21T12:51:57.322Z,46.30
2023-04-21T12:54:24.210Z,45.50
2023-04-21T12:56:51.016Z,44.60
2023-04-21T12:59:17.846Z,44.30
2023-04-21T13:01:44.745Z,44.70
2023-04-21T13:04:11.695Z,45.10
2023-04-21T13:06:39.099Z,44.70
2023-04-21T13:09:06.364Z,45.10
2023-04-21T13:11:33.547Z,45.30
2023-04-21T13:14:00.319Z,44.90
2023-04-21T13:16:28.637Z,45.30
2023-04-21T13:18:57.000Z,45.50
2023-04-21T13:21:23.731Z,45.50
2023-04-21T13:23:50.460Z,43.40
2023-04-21T13:26:17.869Z,44.30
2023-04-21T13:28:45.017Z,44.20
2023-04-21T13:31:11.851Z,44.50
2023-04-21T13:33:38.605Z,44.70
2023-04-21T13:36:05.764Z,43.40
2023-04-21T13:38:33.156Z,42.90
2023-04-21T13:40:59.918Z,43.30
2023-04-21T13:43:26.645Z,42.80
2023-04-21T13:45:53.491Z,43.70
2023-04-21T13:48:22.143Z,43.20
2023-04-21T13:50:49.162Z,43.10
2023-04-21T13:53:21.321Z,43.50
2023-04-21T13:55:48.620Z,43.20
2023-04-21T13:58:16.898Z,42.60
2023-04-21T14:00:43.955Z,43.30
2023-04-21T14:03:11.642Z,43.70
2023-04-21T14:05:39.147Z,43.60
2023-04-21T14:08:06.402Z,44.00
2023-04-21T14:10:33.840Z,42.80
2023-04-21T14:13:00.737Z,43.40
2023-04-21T14:15:27.549Z,43.70
2023-04-21T14:17:54.419Z,43.20
2023-04-21T14:20:21.336Z,43.10
2023-04-21T14:22:48.162Z,38.70
2023-04-21T14:25:15.208Z,37.00
2023-04-21T14:27:42.057Z,37.90
2023-04-21T14:30:10.588Z,41.70
2023-04-21T14:32:37.537Z,42.10
2023-04-21T14:35:05.646Z,42.10
2023-04-21T14:37:33.202Z,42.50
2023-04-21T14:40:00.168Z,42.10
2023-04-21T14:42:27.007Z,41.80
2023-04-21T14:44:53.916Z,41.20
2023-04-21T14:47:21.705Z,40.70
2023-04-21T14:49:54.692Z,40.20
2023-04-21T14:52:24.709Z,40.60
2023-04-21T14:54:51.691Z,40.50
2023-04-21T14:57:21.166Z,39.50
2023-04-21T14:59:52.077Z,38.70
2023-04-21T15:02:20.398Z,38.80
2023-04-21T15:04:47.567Z,38.40
2023-04-21T15:07:15.507Z,38.70
2023-04-21T15:09:45.721Z,37.20
2023-04-21T15:12:16.174Z,35.90
2023-04-21T15:14:42.941Z,35.10
2023-04-21T15:17:09.849Z,35.70
2023-04-21T15:19:36.774Z,35.60
2023-04-21T15:22:04.890Z,36.20
2023-04-21T15:24:31.679Z,36.40
2023-04-21T15:26:58.587Z,36.20
2023-04-21T15:29:25.365Z,35.60
2023-04-21T15:31:52.071Z,35.40
2023-04-21T15:34:18.837Z,36.30
2023-04-21T15:36:45.689Z,36.00
2023-04-21T15:39:14.135Z,36.00
2023-04-21T15:41:41.166Z,35.50
2023-04-21T15:44:07.964Z,35.70
2023-04-21T15:46:34.784Z,35.10
2023-04-21T15:49:01.701Z,34.70
2023-04-21T15:51:28.545Z,34.50
2023-04-21T15:53:55.524Z,33.80
2023-04-21T15:56:22.498Z,33.80
2023-04-21T15:58:49.228Z,33.60
2023-04-21T16:01:16.363Z,33.60
2023-04-21T16:03:43.297Z,34.10
2023-04-21T16:06:10.802Z,34.30
2023-04-21T16:08:37.759Z,34.40
2023-04-21T16:11:05.201Z,34.50
2023-04-21T16:13:32.072Z,33.50
2023-04-21T16:15:59.008Z,33.10
2023-04-21T16:18:25.904Z,33.00
2023-04-21T16:20:52.948Z,33.30
2023-04-21T16:23:20.371Z,33.60
2023-04-21T16:25:47.587Z,33.90
2023-04-21T16:28:14.377Z,33.90
2023-04-21T16:30:43.617Z,33.40
2023-04-21T16:33:14.517Z,33.40
2023-04-21T16:35:41.848Z,32.70
2023-04-21T16:38:08.741Z,31.80
2023-04-21T16:40:35.733Z,31.90
2023-04-21T16:43:02.542Z,32.50
2023-04-21T16:45:29.832Z,33.10
2023-04-21T16:47:57.116Z,33.40
2023-04-21T16:50:24.151Z,33.70
2023-04-21T16:52:50.983Z,34.10
2023-04-21T16:55:18.149Z,33.90
2023-04-21T16:57:45.127Z,33.70
2023-04-21T17:00:13.015Z,32.90
2023-04-21T17:02:39.969Z,33.30
2023-04-21T17:05:07.070Z,33.60
2023-04-21T17:07:34.285Z,33.80
2023-04-21T17:10:01.182Z,32.70
2023-04-21T17:12:28.154Z,33.00
2023-04-21T17:14:55.128Z,32.50
2023-04-21T17:17:22.171Z,32.70
2023-04-21T17:19:49.160Z,32.60
2023-04-21T17:22:15.859Z,32.60
2023-04-21T17:24:52.452Z,32.80
2023-04-21T17:27:20.902Z,32.90
2023-04-21T17:29:47.858Z,33.10
2023-04-21T17:32:14.898Z,33.20
2023-04-21T17:34:41.706Z,33.20
2023-04-21T17:37:08.556Z,33.40
2023-04-21T17:39:35.422Z,33.50
2023-04-21T17:42:02.605Z,33.80
2023-04-21T17:44:29.745Z,33.90
2023-04-21T17:46:58.120Z,34.60
2023-04-21T17:49:25.482Z,34.70
2023-04-21T17:51:53.165Z,34.90
2023-04-21T17:54:19.952Z,35.10
2023-04-21T17:56:46.939Z,35.60
2023-04-21T17:59:14.088Z,35.60
2023-04-21T18:01:41.094Z,35.70
2023-04-21T18:04:08.487Z,36.10
2023-04-21T18:06:35.976Z,36.10
2023-04-21T18:09:04.894Z,36.30
2023-04-21T18:11:32.030Z,36.40
2023-04-21T18:13:58.971Z,37.20
2023-04-21T18:16:26.456Z,36.70
2023-04-21T18:18:53.390Z,36.80
2023-04-21T18:21:20.877Z,37.00
2023-04-21T18:23:47.636Z,37.10
2023-04-21T18:26:14.466Z,37.40
2023-04-21T18:28:41.148Z,37.60
2023-04-21T18:31:07.954Z,37.70
2023-04-21T18:33:34.775Z,37.70
2023-04-21T18:36:01.604Z,38.70
2023-04-21T18:38:28.364Z,38.10
2023-04-21T18:40:56.143Z,38.30
2023-04-21T18:43:23.085Z,38.40
2023-04-21T18:45:49.905Z,38.40
2023-04-21T18:48:16.671Z,38.80
2023-04-21T18:50:43.473Z,39.20
2023-04-21T18:53:10.247Z,40.90
2023-04-21T18:55:37.534Z,40.00
2023-04-21T18:58:04.408Z,39.90
2023-04-21T19:00:32.270Z,39.90
2023-04-21T19:03:03.656Z,40.10
2023-04-21T19:05:31.898Z,39.70
2023-04-21T19:07:58.883Z,39.90
2023-04-21T19:10:26.616Z,40.50
2023-04-21T19:12:54.041Z,40.90
2023-04-21T19:15:22.325Z,41.20
2023-04-21T19:17:49.198Z,41.60
2023-04-21T19:20:15.992Z,41.70
2023-04-21T19:22:42.807Z,41.60
2023-04-21T19:25:10.146Z,41.20
2023-04-21T19:27:37.264Z,40.70
2023-04-21T19:30:05.375Z,41.20
2023-04-21T19:32:32.209Z,41.80
2023-04-21T19:34:59.017Z,42.20
2023-04-21T19:37:26.498Z,42.60
2023-04-21T19:39:53.408Z,43.30
2023-04-21T19:42:20.314Z,44.20
2023-04-21T19:44:47.056Z,44.70
2023-04-21T19:47:13.925Z,44.90
2023-04-21T19:49:40.702Z,45.30
2023-04-21T19:52:07.503Z,45.10
2023-04-21T19:54:34.243Z,45.60
2023-04-21T19:57:01.769Z,45.70
2023-04-21T19:59:28.643Z,45.90
2023-04-21T20:01:55.589Z,45.90
2023-04-21T20:04:22.637Z,46.50
2023-04-21T20:06:49.568Z,45.80
2023-04-21T20:09:16.286Z,45.90
2023-04-21T20:11:43.108Z,45.60
2023-04-21T20:14:10.747Z,45.00
2023-04-21T20:16:37.858Z,45.00
2023-04-21T20:19:04.848Z,43.90
2023-04-21T20:21:32.532Z,42.20
2023-04-21T20:23:59.377Z,41.70
2023-04-21T20:26:26.617Z,41.00
2023-04-21T20:28:53.529Z,40.20
2023-04-21T20:31:23.732Z,39.60
2023-04-21T20:33:51.161Z,39.10
2023-04-21T20:36:18.412Z,38.90
2023-04-21T20:38:46.493Z,38.80
2023-04-21T20:41:13.614Z,38.10
2023-04-21T20:43:40.530Z,38.80
2023-04-21T20:46:08.843Z,37.90
2023-04-21T20:48:35.902Z,38.00
2023-04-21T20:51:02.918Z,37.90
2023-04-21T20:53:29.691Z,37.90
2023-04-21T20:55:56.521Z,37.30
2023-04-21T20:58:24.777Z,37.90
2023-04-21T21:00:51.646Z,37.90
2023-04-21T21:03:20.253Z,37.90
2023-04-21T21:05:47.644Z,38.10
2023-04-21T21:08:15.198Z,38.20
2023-04-21T21:10:42.489Z,38.10
2023-04-21T21:13:09.326Z,38.20
2023-04-21T21:15:36.164Z,38.60
2023-04-21T21:18:03.253Z,38.50
2023-04-21T21:20:30.262Z,38.40
2023-04-21T21:22:57.082Z,38.30
2023-04-21T21:25:23.974Z,38.70
2023-04-21T21:27:50.787Z,39.30
2023-04-21T21:30:17.626Z,39.50
2023-04-21T21:32:44.987Z,40.20
2023-04-21T21:35:12.120Z,40.50
2023-04-21T21:37:39.530Z,40.70
2023-04-21T21:40:07.392Z,41.10
2023-04-21T21:42:34.301Z,41.20
2023-04-21T21:45:01.289Z,41.40
2023-04-21T21:47:28.350Z,41.80
2023-04-21T21:49:57.337Z,42.00
2023-04-21T21:52:24.596Z,43.00
2023-04-21T21:54:52.644Z,43.50
2023-04-21T21:57:19.474Z,43.80
2023-04-21T21:59:47.090Z,44.20
2023-04-21T22:02:14.139Z,44.50
2023-04-21T22:04:41.565Z,44.90
2023-04-21T22:07:08.637Z,45.00
2023-04-21T22:09:37.334Z,45.60
2023-04-21T22:12:07.304Z,46.20
2023-04-21T22:14:34.198Z,46.60
2023-04-21T22:17:01.029Z,47.00
2023-04-21T22:19:28.919Z,47.30
2023-04-21T22:21:56.333Z,47.90
2023-04-21T22:24:23.229Z,48.40
2023-04-21T22:26:50.054Z,48.70
2023-04-21T22:29:16.873Z,48.80
2023-04-21T22:31:43.798Z,48.80
2023-04-21T22:34:10.863Z,49.20
2023-04-21T22:36:37.686Z,49.60
2023-04-21T22:39:04.798Z,49.60
2023-04-21T22:41:32.061Z,50.00
2023-04-21T22:43:59.090Z,50.50
2023-04-21T22:46:26.146Z,50.80
2023-04-21T22:48:54.074Z,51.30
2023-04-21T22:51:21.556Z,51.20
2023-04-21T22:53:48.504Z,51.50
2023-04-21T22:56:15.913Z,51.70
2023-04-21T22:58:43.326Z,51.90
2023-04-21T23:01:10.584Z,51.80
2023-04-21T23:03:37.404Z,52.60
2023-04-21T23:06:04.462Z,53.00
2023-04-21T23:08:31.278Z,54.20
2023-04-21T23:10:58.100Z,55.60
2023-04-21T23:13:25.474Z,55.80
2023-04-21T23:15:52.404Z,56.10
2023-04-21T23:18:19.172Z,56.20
2023-04-21T23:20:46.097Z,56.60
2023-04-21T23:23:12.978Z,56.80
2023-04-21T23:25:39.806Z,56.80
2023-04-21T23:28:06.753Z,57.10
2023-04-21T23:30:34.618Z,57.30
2023-04-21T23:33:01.474Z,58.10
2023-04-21T23:35:28.350Z,59.00
2023-04-21T23:37:55.132Z,59.30
2023-04-21T23:40:22.081Z,59.90
2023-04-21T23:42:49.229Z,60.50
2023-04-21T23:45:16.237Z,60.70
2023-04-21T23:47:43.148Z,61.20
2023-04-21T23:50:10.612Z,60.50
2023-04-21T23:52:37.482Z,61.30
2023-04-21T23:55:04.769Z,62.10
2023-04-21T23:57:31.549Z,62.30
2023-04-21T23:59:58.254Z,61.90
